createdAt,value
2019-04-29T00:00:59.605Z,1.67
2019-04-29T00:03:31.192Z,1.33
2019-04-29T00:06:01.394Z,1.60
2019-04-29T00:08:31.713Z,1.30
2019-04-29T00:11:01.877Z,1.73
2019-04-29T00:13:32.092Z,1.90
2019-04-29T00:16:15.481Z,1.93
2019-04-29T00:19:09.127Z,1.17
2019-04-29T00:21:39.827Z,1.50
2019-04-29T00:24:09.969Z,1.90
2019-04-29T00:26:40.319Z,2.07
2019-04-29T00:29:10.453Z,2.00
2019-04-29T00:31:40.691Z,2.10
2019-04-29T00:34:10.814Z,3.30
2019-04-29T00:36:48.343Z,3.07
2019-04-29T00:39:49.781Z,1.90
2019-04-29T00:42:37.701Z,1.50
2019-04-29T00:45:08.378Z,1.70
2019-04-29T00:47:38.463Z,1.30
2019-04-29T00:50:08.586Z,1.63
2019-04-29T00:52:38.715Z,1.65
2019-04-29T00:55:12.405Z,1.30
2019-04-29T00:57:42.787Z,1.43
2019-04-29T01:00:15.107Z,1.40
2019-04-29T01:02:45.398Z,3.00
2019-04-29T01:05:16.633Z,1.60
2019-04-29T01:07:46.764Z,1.60
2019-04-29T01:10:17.068Z,1.70
2019-04-29T01:12:47.391Z,1.70
2019-04-29T01:15:18.839Z,2.40
2019-04-29T01:17:49.286Z,2.57
2019-04-29T01:20:19.590Z,1.83
2019-04-29T01:22:49.898Z,1.60
2019-04-29T01:25:20.182Z,2.10
2019-04-29T01:27:57.125Z,1.80
2019-04-29T01:30:54.011Z,1.22
2019-04-29T01:33:24.597Z,1.73
2019-04-29T01:36:09.130Z,1.63
2019-04-29T01:38:39.505Z,2.00
2019-04-29T01:41:14.452Z,1.17
2019-04-29T01:44:04.783Z,1.30
2019-04-29T01:46:34.947Z,1.30
2019-04-29T01:49:05.498Z,1.57
2019-04-29T01:51:35.981Z,1.20
2019-04-29T01:54:06.341Z,1.10
2019-04-29T01:56:36.468Z,1.00
2019-04-29T01:59:06.667Z,0.83
2019-04-29T02:01:36.983Z,1.83
2019-04-29T02:04:07.442Z,1.37
2019-04-29T02:06:37.473Z,3.37
2019-04-29T02:09:11.339Z,3.23
2019-04-29T02:11:41.626Z,2.70
2019-04-29T02:14:11.758Z,1.57
2019-04-29T02:16:42.010Z,1.40
2019-04-29T02:19:12.231Z,1.52
2019-04-29T02:21:45.065Z,1.27
2019-04-29T02:24:17.547Z,0.90
2019-04-29T02:26:47.669Z,1.30
2019-04-29T02:29:17.798Z,1.10
2019-04-29T02:31:48.324Z,1.20
2019-04-29T02:34:18.427Z,1.03
2019-04-29T02:36:48.542Z,2.53
2019-04-29T02:39:34.310Z,2.27
2019-04-29T02:42:22.563Z,1.87
2019-04-29T02:44:53.389Z,1.30
2019-04-29T02:47:23.614Z,1.40
2019-04-29T02:49:53.814Z,1.13
2019-04-29T02:52:24.009Z,1.33
2019-04-29T02:54:58.164Z,1.40
2019-04-29T02:57:45.708Z,2.00
2019-04-29T03:00:37.938Z,1.47
2019-04-29T03:03:14.915Z,1.37
2019-04-29T03:05:50.622Z,1.57
2019-04-29T03:08:20.953Z,1.10
2019-04-29T03:10:53.429Z,1.20
2019-04-29T03:13:23.684Z,1.40
2019-04-29T03:15:53.975Z,1.20
2019-04-29T03:18:26.435Z,2.53
2019-04-29T03:21:19.511Z,3.30
2019-04-29T03:23:49.824Z,2.95
2019-04-29T03:26:20.840Z,2.13
2019-04-29T03:28:51.208Z,1.60
2019-04-29T03:31:21.400Z,1.10
2019-04-29T03:33:51.644Z,1.30
2019-04-29T03:36:22.176Z,0.90
2019-04-29T03:38:52.379Z,1.20
2019-04-29T03:41:22.632Z,1.00
2019-04-29T03:43:53.645Z,1.00
2019-04-29T03:46:23.837Z,1.33
2019-04-29T03:48:54.104Z,1.30
2019-04-29T03:51:25.304Z,1.80
2019-04-29T03:53:55.703Z,1.47
2019-04-29T03:56:26.223Z,1.63
2019-04-29T03:58:56.533Z,1.13
2019-04-29T04:01:32.344Z,1.10
2019-04-29T04:04:07.659Z,1.50
2019-04-29T04:07:03.633Z,1.73
2019-04-29T04:09:33.258Z,1.10
2019-04-29T04:12:03.636Z,1.63
2019-04-29T04:14:34.110Z,1.10
2019-04-29T04:17:14.501Z,1.00
2019-04-29T04:19:45.313Z,1.17
2019-04-29T04:22:15.477Z,1.60
2019-04-29T04:24:45.847Z,1.50
2019-04-29T04:27:16.012Z,2.37
2019-04-29T04:29:46.279Z,1.33
2019-04-29T04:32:16.904Z,1.50
2019-04-29T04:34:47.427Z,1.63
2019-04-29T04:37:17.535Z,1.20
2019-04-29T04:39:47.793Z,1.13
2019-04-29T04:42:18.109Z,1.10
2019-04-29T04:44:48.850Z,1.57
2019-04-29T04:47:21.158Z,1.50
2019-04-29T04:49:52.043Z,1.40
2019-04-29T04:52:22.459Z,1.50
2019-04-29T04:54:54.489Z,1.17
2019-04-29T04:57:24.777Z,1.60
2019-04-29T04:59:55.217Z,1.40
2019-04-29T05:02:26.582Z,1.40
2019-04-29T05:04:57.019Z,1.43
2019-04-29T05:07:27.429Z,1.30
2019-04-29T05:09:57.669Z,1.33
2019-04-29T05:12:28.999Z,0.93
2019-04-29T05:14:59.172Z,1.40
2019-04-29T05:17:29.381Z,3.93
2019-04-29T05:19:59.814Z,2.00
2019-04-29T05:22:30.065Z,1.13
2019-04-29T05:25:00.285Z,1.67
2019-04-29T05:27:30.507Z,1.23
2019-04-29T05:30:01.072Z,1.60
2019-04-29T05:32:32.358Z,2.10
2019-04-29T05:35:04.664Z,1.20
2019-04-29T05:37:51.938Z,1.73
2019-04-29T05:40:39.791Z,1.75
2019-04-29T05:43:12.498Z,1.77
2019-04-29T05:46:01.698Z,1.40
2019-04-29T05:48:33.238Z,1.63
2019-04-29T05:51:22.816Z,1.70
2019-04-29T05:53:55.144Z,1.13
2019-04-29T05:56:26.164Z,1.60
2019-04-29T05:58:56.509Z,1.73
2019-04-29T06:01:29.117Z,13.05
2019-04-29T06:03:59.794Z,4.43
2019-04-29T06:06:30.893Z,5.97
2019-04-29T06:09:01.282Z,2.90
2019-04-29T06:11:34.282Z,2.02
2019-04-29T06:14:05.073Z,2.07
2019-04-29T06:16:35.531Z,1.80
2019-04-29T06:19:06.092Z,1.40
2019-04-29T06:21:36.775Z,1.60
2019-04-29T06:24:06.993Z,1.80
2019-04-29T06:26:37.352Z,1.80
2019-04-29T06:29:07.637Z,1.27
2019-04-29T06:31:37.768Z,1.40
2019-04-29T06:34:08.072Z,1.70
2019-04-29T06:36:38.258Z,1.40
2019-04-29T06:39:08.408Z,1.77
2019-04-29T06:41:40.607Z,1.97
2019-04-29T06:44:16.115Z,1.60
2019-04-29T06:46:42.959Z,3.40
2019-04-29T06:49:13.223Z,6.20
2019-04-29T06:51:43.372Z,2.30
2019-04-29T06:54:13.506Z,2.00
2019-04-29T06:56:43.660Z,1.70
2019-04-29T06:59:14.109Z,1.97
2019-04-29T07:01:44.587Z,2.30
2019-04-29T07:04:15.252Z,4.37
2019-04-29T07:06:56.721Z,3.90
2019-04-29T07:09:17.396Z,2.80
2019-04-29T07:11:47.747Z,3.13
2019-04-29T07:14:17.961Z,2.67
2019-04-29T07:16:48.264Z,2.17
2019-04-29T07:19:18.468Z,2.63
2019-04-29T07:21:51.468Z,2.13
2019-04-29T07:24:20.795Z,3.00
2019-04-29T07:26:50.890Z,2.47
2019-04-29T07:29:21.573Z,2.50
2019-04-29T07:31:53.130Z,3.00
2019-04-29T07:34:23.379Z,4.00
2019-04-29T07:36:57.629Z,3.17
2019-04-29T07:39:26.830Z,3.03
2019-04-29T07:41:57.697Z,3.70
2019-04-29T07:44:43.336Z,3.10
2019-04-29T07:47:03.057Z,3.07
2019-04-29T07:49:33.310Z,2.77
2019-04-29T07:52:03.528Z,3.10
2019-04-29T07:54:33.954Z,2.83
2019-04-29T07:57:04.144Z,3.17
2019-04-29T07:59:38.370Z,3.00
2019-04-29T08:02:06.296Z,2.90
2019-04-29T08:04:36.590Z,2.90
2019-04-29T08:07:06.885Z,3.00
2019-04-29T08:09:39.984Z,2.63
2019-04-29T08:12:10.189Z,2.70
2019-04-29T08:14:41.263Z,2.70
2019-04-29T08:17:11.550Z,3.03
2019-04-29T08:19:41.898Z,3.00
2019-04-29T08:22:15.448Z,2.87
2019-04-29T08:24:45.865Z,3.03
2019-04-29T08:27:17.093Z,2.87
2019-04-29T08:29:47.301Z,3.33
2019-04-29T08:32:17.888Z,2.83
2019-04-29T08:34:48.558Z,3.10
2019-04-29T08:37:18.994Z,3.50
2019-04-29T08:40:08.373Z,3.40
2019-04-29T08:42:26.254Z,3.00
2019-04-29T08:45:24.779Z,3.47
2019-04-29T08:47:55.418Z,2.50
2019-04-29T08:50:25.994Z,3.27
2019-04-29T08:52:56.298Z,3.17
2019-04-29T08:55:31.375Z,3.27
2019-04-29T08:57:59.289Z,3.07
2019-04-29T09:00:29.741Z,3.13
2019-04-29T09:02:59.930Z,3.23
2019-04-29T09:05:30.092Z,3.07
2019-04-29T09:08:00.242Z,3.23
2019-04-29T09:10:37.904Z,2.93
2019-04-29T09:13:02.680Z,3.03
2019-04-29T09:15:32.873Z,3.23
2019-04-29T09:18:03.118Z,2.80
2019-04-29T09:20:33.385Z,4.20
2019-04-29T09:23:08.218Z,3.23
2019-04-29T09:25:45.330Z,3.37
2019-04-29T09:28:18.273Z,2.87
2019-04-29T09:30:48.303Z,3.23
2019-04-29T09:33:18.731Z,3.10
2019-04-29T09:35:49.092Z,2.30
2019-04-29T09:38:19.334Z,2.67
2019-04-29T09:41:04.680Z,2.50
2019-04-29T09:43:47.948Z,2.53
2019-04-29T09:46:23.150Z,2.47
2019-04-29T09:48:54.264Z,3.10
2019-04-29T09:51:27.797Z,3.07
2019-04-29T09:53:57.525Z,2.60
2019-04-29T09:56:27.842Z,2.40
2019-04-29T09:59:16.100Z,2.93
2019-04-29T10:01:55.121Z,3.00
2019-04-29T10:04:55.919Z,3.30
2019-04-29T10:07:17.041Z,3.07
2019-04-29T10:09:56.975Z,2.07
2019-04-29T10:12:19.484Z,2.87
2019-04-29T10:14:49.793Z,3.27
2019-04-29T10:17:27.540Z,3.50
2019-04-29T10:20:03.165Z,4.00
2019-04-29T10:22:35.204Z,2.80
2019-04-29T10:25:06.096Z,2.87
2019-04-29T10:27:36.566Z,2.90
2019-04-29T10:30:08.127Z,6.70
2019-04-29T10:32:42.391Z,13.20
2019-04-29T10:35:11.099Z,7.90
2019-04-29T10:37:42.890Z,16.60
2019-04-29T10:40:23.697Z,3.93
2019-04-29T10:43:15.552Z,3.23
2019-04-29T10:46:14.166Z,2.53
2019-04-29T10:48:54.615Z,2.00
2019-04-29T10:51:27.475Z,2.13
2019-04-29T10:53:58.176Z,2.90
2019-04-29T10:56:28.451Z,2.63
2019-04-29T10:58:58.893Z,2.27
2019-04-29T11:02:20.154Z,2.20
2019-04-29T11:04:51.818Z,1.80
2019-04-29T11:07:29.303Z,2.73
2019-04-29T11:10:09.325Z,2.30
2019-04-29T11:12:39.775Z,2.70
2019-04-29T11:15:13.939Z,2.37
2019-04-29T11:17:44.711Z,2.50
2019-04-29T11:20:15.967Z,2.70
2019-04-29T11:22:52.492Z,2.20
2019-04-29T11:25:34.385Z,2.40
2019-04-29T11:28:04.764Z,2.60
2019-04-29T11:30:39.462Z,2.20
2019-04-29T11:33:17.453Z,1.97
2019-04-29T11:35:59.156Z,2.03
2019-04-29T11:38:32.929Z,2.03
2019-04-29T11:41:03.068Z,1.93
2019-04-29T11:43:33.713Z,2.33
2019-04-29T11:46:04.654Z,1.80
2019-04-29T11:48:35.495Z,2.20
2019-04-29T11:51:34.103Z,3.03
2019-04-29T11:54:03.061Z,2.37
2019-04-29T11:56:33.743Z,1.97
2019-04-29T11:59:29.704Z,1.80
2019-04-29T12:02:14.494Z,2.00
2019-04-29T12:04:49.073Z,2.50
2019-04-29T12:07:21.232Z,1.97
2019-04-29T12:09:52.000Z,2.50
2019-04-29T12:12:23.063Z,1.80
2019-04-29T12:15:15.679Z,1.90
2019-04-29T12:18:07.819Z,2.13
2019-04-29T12:20:56.081Z,2.37
2019-04-29T12:23:27.037Z,3.20
2019-04-29T12:25:58.709Z,3.63
2019-04-29T12:28:29.942Z,3.10
2019-04-29T12:31:05.687Z,2.17
2019-04-29T12:33:43.847Z,2.20
2019-04-29T12:36:16.391Z,2.27
2019-04-29T12:39:11.663Z,2.73
2019-04-29T12:42:00.629Z,1.83
2019-04-29T12:44:47.968Z,2.23
2019-04-29T12:47:27.143Z,2.80
2019-04-29T12:49:57.139Z,2.80
2019-04-29T12:52:28.307Z,2.53
2019-04-29T12:55:03.104Z,3.55
2019-04-29T12:57:30.940Z,3.90
2019-04-29T13:00:01.671Z,3.33
2019-04-29T13:03:06.218Z,3.08
2019-04-29T13:05:58.334Z,3.00
2019-04-29T13:08:46.195Z,2.60
2019-04-29T13:11:19.151Z,2.20
2019-04-29T13:13:51.394Z,2.90
2019-04-29T13:16:46.077Z,3.03
2019-04-29T13:19:25.069Z,3.20
2019-04-29T13:21:56.568Z,3.30
2019-04-29T13:24:27.067Z,2.50
2019-04-29T13:26:57.711Z,4.10
2019-04-29T13:29:32.050Z,2.87
2019-04-29T13:32:01.829Z,2.83
2019-04-29T13:34:37.013Z,2.77
2019-04-29T13:37:12.309Z,2.80
2019-04-29T13:39:40.792Z,3.50
2019-04-29T13:42:15.506Z,2.10
2019-04-29T13:45:04.511Z,2.80
2019-04-29T13:47:41.129Z,2.90
2019-04-29T13:50:33.851Z,2.50
2019-04-29T13:52:47.514Z,2.67
2019-04-29T13:55:41.533Z,3.37
2019-04-29T13:57:50.877Z,2.10
2019-04-29T14:00:43.271Z,2.13
2019-04-29T14:03:17.432Z,2.83
2019-04-29T14:05:48.094Z,2.93
2019-04-29T14:08:18.391Z,2.22
2019-04-29T14:10:51.115Z,2.70
2019-04-29T14:13:25.846Z,2.40
2019-04-29T14:15:57.284Z,3.10
2019-04-29T14:18:27.765Z,2.50
2019-04-29T14:20:58.066Z,2.40
2019-04-29T14:23:28.253Z,3.03
2019-04-29T14:25:58.656Z,2.87
2019-04-29T14:28:28.920Z,3.93
2019-04-29T14:30:59.517Z,5.80
2019-04-29T14:33:36.794Z,4.50
2019-04-29T14:36:09.026Z,2.20
2019-04-29T14:38:40.587Z,1.80
2019-04-29T14:41:14.331Z,1.87
2019-04-29T14:44:05.014Z,2.93
2019-04-29T14:46:57.253Z,2.50
2019-04-29T14:49:31.419Z,1.80
2019-04-29T14:52:03.477Z,2.27
2019-04-29T14:54:36.956Z,1.90
2019-04-29T14:57:08.952Z,2.27
2019-04-29T14:59:38.283Z,2.13
2019-04-29T15:02:17.090Z,2.30
2019-04-29T15:04:46.689Z,2.00
2019-04-29T15:07:17.373Z,2.50
2019-04-29T15:09:58.049Z,2.20
2019-04-29T15:12:52.139Z,2.20
2019-04-29T15:15:39.036Z,2.83
2019-04-29T15:18:45.862Z,2.97
2019-04-29T15:21:31.019Z,2.60
2019-04-29T15:23:50.240Z,3.20
2019-04-29T15:26:20.686Z,2.27
2019-04-29T15:28:54.025Z,2.80
2019-04-29T15:31:25.485Z,3.20
2019-04-29T15:33:55.901Z,2.83
2019-04-29T15:36:26.247Z,3.07
2019-04-29T15:39:09.112Z,3.80
2019-04-29T15:41:30.981Z,3.80
2019-04-29T15:44:07.639Z,4.07
2019-04-29T15:46:45.256Z,9.67
2019-04-29T15:49:05.651Z,5.10
2019-04-29T15:51:37.232Z,7.87
2019-04-29T15:54:09.335Z,4.40
2019-04-29T15:56:40.026Z,3.97
2019-04-29T15:59:11.034Z,3.60
2019-04-29T16:01:42.328Z,2.90
2019-04-29T16:04:20.825Z,3.20
2019-04-29T16:07:07.691Z,2.97
2019-04-29T16:09:51.918Z,3.37
2019-04-29T16:12:25.906Z,3.97
2019-04-29T16:14:56.100Z,3.50
2019-04-29T16:17:26.502Z,3.57
2019-04-29T16:19:57.167Z,3.20
2019-04-29T16:22:27.568Z,2.80
2019-04-29T16:24:59.391Z,2.27
2019-04-29T16:27:29.932Z,2.17
2019-04-29T16:30:00.322Z,2.93
2019-04-29T16:32:49.237Z,1.90
2019-04-29T16:35:23.777Z,2.50
2019-04-29T16:37:51.813Z,2.80
2019-04-29T16:40:23.024Z,2.73
2019-04-29T16:43:01.982Z,4.73
2019-04-29T16:45:54.196Z,2.80
2019-04-29T16:48:24.758Z,2.70
2019-04-29T16:50:55.071Z,2.30
2019-04-29T16:53:25.496Z,2.60
2019-04-29T16:55:55.694Z,2.50
2019-04-29T16:58:26.004Z,4.93
2019-04-29T17:00:56.800Z,2.77
2019-04-29T17:03:27.115Z,2.10
2019-04-29T17:05:57.404Z,2.60
2019-04-29T17:08:36.993Z,2.50
2019-04-29T17:11:17.560Z,2.60
2019-04-29T17:13:47.097Z,2.87
2019-04-29T17:16:19.169Z,3.10
2019-04-29T17:18:49.585Z,2.77
2019-04-29T17:21:20.535Z,3.30
2019-04-29T17:23:51.112Z,3.97
2019-04-29T17:26:23.229Z,3.47
2019-04-29T17:29:37.877Z,4.60
2019-04-29T17:32:04.775Z,3.17
2019-04-29T17:34:56.867Z,3.30
2019-04-29T17:37:08.947Z,3.57
2019-04-29T17:39:39.696Z,3.50
2019-04-29T17:42:10.151Z,4.23
2019-04-29T17:44:45.657Z,4.20
2019-04-29T17:47:50.980Z,4.03
2019-04-29T17:50:30.850Z,4.40
2019-04-29T17:53:01.815Z,7.00
2019-04-29T17:55:45.309Z,4.43
2019-04-29T17:58:19.983Z,4.40
2019-04-29T18:01:12.256Z,6.37
2019-04-29T18:04:20.115Z,5.00
2019-04-29T18:07:11.988Z,4.87
2019-04-29T18:09:47.448Z,4.30
2019-04-29T18:12:24.913Z,5.63
2019-04-29T18:14:55.846Z,7.50
2019-04-29T18:17:31.136Z,6.43
2019-04-29T18:20:32.860Z,6.90
2019-04-29T18:23:19.117Z,5.77
2019-04-29T18:26:08.625Z,4.93
2019-04-29T18:28:39.307Z,4.37
2019-04-29T18:31:12.981Z,4.80
2019-04-29T18:33:45.110Z,5.40
2019-04-29T18:36:23.523Z,4.80
2019-04-29T18:38:50.074Z,4.33
2019-04-29T18:41:25.433Z,4.40
2019-04-29T18:43:56.328Z,3.80
2019-04-29T18:46:25.877Z,4.63
2019-04-29T18:49:03.135Z,5.60
2019-04-29T18:51:29.830Z,5.67
2019-04-29T18:54:00.395Z,5.70
2019-04-29T18:56:35.858Z,3.50
2019-04-29T18:59:02.866Z,4.00
2019-04-29T19:01:34.911Z,3.10
2019-04-29T19:04:17.326Z,3.70
2019-04-29T19:06:46.912Z,3.40
2019-04-29T19:09:20.768Z,3.17
2019-04-29T19:11:53.199Z,3.00
2019-04-29T19:14:26.915Z,3.60
2019-04-29T19:17:00.117Z,3.23
2019-04-29T19:19:30.870Z,3.80
2019-04-29T19:22:04.858Z,3.23
2019-04-29T19:24:36.338Z,3.20
2019-04-29T19:27:09.143Z,3.50
2019-04-29T19:29:38.777Z,3.40
2019-04-29T19:32:10.578Z,2.97
2019-04-29T19:34:43.453Z,3.53
2019-04-29T19:37:15.272Z,3.00
2019-04-29T19:39:45.954Z,3.23
2019-04-29T19:42:28.668Z,3.47
2019-04-29T19:44:50.157Z,3.20
2019-04-29T19:47:20.820Z,3.67
2019-04-29T19:49:51.833Z,3.30
2019-04-29T19:52:28.681Z,4.17
2019-04-29T19:54:57.403Z,2.70
2019-04-29T19:57:27.165Z,3.17
2019-04-29T19:59:58.362Z,3.47
2019-04-29T20:02:29.383Z,2.93
2019-04-29T20:05:08.260Z,3.47
2019-04-29T20:07:42.331Z,3.97
2019-04-29T20:10:14.749Z,5.30
2019-04-29T20:12:52.781Z,3.60
2019-04-29T20:15:18.350Z,3.20
2019-04-29T20:18:14.939Z,2.90
2019-04-29T20:21:07.976Z,3.10
2019-04-29T20:23:28.512Z,3.50
2019-04-29T20:26:13.015Z,3.30
2019-04-29T20:28:31.594Z,3.97
2019-04-29T20:31:15.461Z,3.30
2019-04-29T20:33:34.577Z,2.93
2019-04-29T20:36:06.243Z,3.50
2019-04-29T20:38:38.796Z,3.77
2019-04-29T20:41:13.013Z,3.33
2019-04-29T20:43:41.706Z,3.40
2019-04-29T20:46:12.131Z,3.90
2019-04-29T20:48:42.726Z,3.50
2019-04-29T20:51:14.607Z,3.27
2019-04-29T20:53:50.365Z,4.00
2019-04-29T20:56:25.298Z,3.67
2019-04-29T20:58:55.168Z,3.40
2019-04-29T21:01:38.101Z,3.50
2019-04-29T21:04:05.920Z,4.07
2019-04-29T21:06:47.354Z,4.03
2019-04-29T21:09:08.933Z,3.73
2019-04-29T21:11:47.590Z,3.90
2019-04-29T21:14:27.211Z,3.43
2019-04-29T21:16:57.516Z,4.00
2019-04-29T21:19:27.519Z,3.97
2019-04-29T21:21:59.146Z,3.73
2019-04-29T21:24:29.433Z,3.72
2019-04-29T21:26:59.898Z,3.50
2019-04-29T21:29:30.957Z,4.00
2019-04-29T21:32:01.771Z,4.47
2019-04-29T21:34:39.848Z,3.97
2019-04-29T21:37:23.387Z,4.37
2019-04-29T21:40:14.843Z,4.10
2019-04-29T21:43:13.435Z,4.00
2019-04-29T21:45:44.967Z,6.23
2019-04-29T21:48:12.883Z,4.23
2019-04-29T21:50:44.859Z,5.17
2019-04-29T21:53:15.369Z,4.90
2019-04-29T21:55:45.922Z,5.13
2019-04-29T21:58:16.452Z,6.70
2019-04-29T22:00:46.675Z,5.80
2019-04-29T22:03:19.884Z,6.07
2019-04-29T22:05:53.639Z,5.87
2019-04-29T22:08:27.142Z,5.80
2019-04-29T22:10:58.128Z,5.97
2019-04-29T22:13:26.132Z,5.13
2019-04-29T22:15:56.700Z,6.33
2019-04-29T22:18:27.335Z,5.20
2019-04-29T22:20:57.644Z,6.50
2019-04-29T22:23:27.950Z,6.20
2019-04-29T22:25:58.346Z,5.73
2019-04-29T22:28:28.476Z,6.10
2019-04-29T22:30:58.740Z,6.43
2019-04-29T22:33:29.642Z,6.10
2019-04-29T22:36:00.805Z,5.40
2019-04-29T22:38:31.080Z,6.70
2019-04-29T22:41:04.973Z,6.10
2019-04-29T22:43:44.657Z,6.40
2019-04-29T22:46:17.209Z,5.97
2019-04-29T22:48:48.722Z,5.37
2019-04-29T22:51:19.111Z,5.63
2019-04-29T22:53:49.585Z,5.70
2019-04-29T22:56:20.012Z,6.57
2019-04-29T22:58:50.332Z,6.27
2019-04-29T23:01:20.558Z,5.90
2019-04-29T23:03:50.803Z,6.05
2019-04-29T23:06:22.351Z,6.60
2019-04-29T23:08:52.940Z,6.67
2019-04-29T23:11:23.190Z,7.20
2019-04-29T23:13:55.306Z,7.95
2019-04-29T23:16:25.400Z,7.70
2019-04-29T23:18:55.519Z,8.50
2019-04-29T23:21:59.757Z,9.80
2019-04-29T23:24:52.658Z,8.90
2019-04-29T23:27:22.842Z,8.50
2019-04-29T23:29:54.136Z,7.63
2019-04-29T23:32:25.396Z,8.95
2019-04-29T23:34:57.264Z,7.80
2019-04-29T23:37:29.405Z,8.23
2019-04-29T23:39:59.971Z,8.60
2019-04-29T23:42:30.152Z,9.28
2019-04-29T23:45:00.362Z,7.63
2019-04-29T23:47:30.605Z,9.33
2019-04-29T23:50:00.805Z,9.40
2019-04-29T23:52:31.022Z,8.10
2019-04-29T23:55:01.214Z,8.77
2019-04-29T23:57:43.536Z,7.80
